Terminal Aerodrome Forecast
Issued by NWS Duluth, MN

Home | Current Version | Previous Version | Text Only | Print | Product List | Glossary On
Versions: 1 2 3 4 5 6 7 8 9 10 11 12 13 14 15 16 17 18 19 20 21 22 23 24 25 26 27 28 29 30 31 32
720
FTUS43 KDLH 240539
TAFDLH
TAF
KDLH 240539Z 2406/2506 VRB06KT P6SM VCSH SCT005 BKN080
      TEMPO 2406/2409 4SM -RA BR SCT004
     FM241200 31005KT P6SM BKN015
     FM241400 32006KT P6SM SCT060
     FM241900 32007KT P6SM VCTS SCT035CB BKN070
     FM250300 08007KT P6SM BKN025=

USA.gov is the U.S. government's official web portal to all federal, state and local government web resources and services.